KQBF/QBF METAR and TAF weather

Enter ICAO airport designator
Station Type Date Time Source
KQBF METAR 2020/01/18 12:56 UTC NOAA

KQBF 181256Z AUTO VRB06G10KT 9000 HZ FEW190 30/00 A2991 RMK AO2 SLP114 WND DATA ESTMD T02961001


Station Type Date Time Source
KQBF Decoded METAR 2020/01/18 12:56 UTC NOAA

Station name not available
Jan 18, 2020 - 07:56 AM EST / 2020.01.18 1256 UTC
Wind: Variable at 7 MPH (6 KT) gusting to 12 MPH (10 KT):0
Visibility: 5 mile(s):0
Sky conditions: mostly clear
Weather: haze
Temperature: 85.3 F (29.6 C)
Dew Point: 31.8 F (-0.1 C)
Relative Humidity: 14%
Pressure (altimeter): 29.91 in. Hg (1012 hPa)
ob: KQBF 181256Z AUTO VRB06G10KT 9000 HZ FEW190 30/00 A2991 RMK AO2 SLP114 WND DATA ESTMD T02961001
cycle: 13

Station Type Date Time Source
KQBF TAF 2009/08/24 17:21 UTC NOAA

TAF
AMD KQBF 241721Z 241313 06010G20KT 9999 FEW025 SCT160 BKN230 QNH2915INS
BECMG 2223 100020G25KT 9000 -SHRA SCT009 BKN025 OVC035 610505 QNH2910INS
TEMPO 0209 10025G35KT BKN010
BECMG 1213 09020G25KT 9000 -SHRA SCT015 BKN035 OVC050 610606 T11/15Z T10/00Z
AMD 241744 LIMITED METWATCH 2417 TIL 2507

Example: see airport list